sensor_id;sensor_type;location;lat;lon;timestamp;temperature;humidity
46754;DHT22;32500;50.620;3.400;2022-08-30T00:00:39;24.40;57.10
46754;DHT22;32500;50.620;3.400;2022-08-30T00:03:24;24.30;57.10
46754;DHT22;32500;50.620;3.400;2022-08-30T00:05:51;24.30;57.20
46754;DHT22;32500;50.620;3.400;2022-08-30T00:08:17;24.30;57.30
46754;DHT22;32500;50.620;3.400;2022-08-30T00:10:43;24.30;57.20
46754;DHT22;32500;50.620;3.400;2022-08-30T00:13:11;24.30;57.20
46754;DHT22;32500;50.620;3.400;2022-08-30T00:15:39;24.30;57.20
46754;DHT22;32500;50.620;3.400;2022-08-30T00:18:05;24.30;57.20
46754;DHT22;32500;50.620;3.400;2022-08-30T00:20:32;24.40;57.30
46754;DHT22;32500;50.620;3.400;2022-08-30T00:22:58;24.30;57.90
46754;DHT22;32500;50.620;3.400;2022-08-30T00:25:24;24.30;57.40
46754;DHT22;32500;50.620;3.400;2022-08-30T00:27:50;24.30;57.30
46754;DHT22;32500;50.620;3.400;2022-08-30T00:30:18;24.30;57.40
46754;DHT22;32500;50.620;3.400;2022-08-30T00:32:44;24.30;57.30
46754;DHT22;32500;50.620;3.400;2022-08-30T00:35:11;24.30;57.40
46754;DHT22;32500;50.620;3.400;2022-08-30T00:37:38;24.30;57.40
46754;DHT22;32500;50.620;3.400;2022-08-30T00:40:05;24.30;57.60
46754;DHT22;32500;50.620;3.400;2022-08-30T00:42:31;24.30;57.50
46754;DHT22;32500;50.620;3.400;2022-08-30T00:44:58;24.30;57.50
46754;DHT22;32500;50.620;3.400;2022-08-30T00:47:24;24.30;57.50
46754;DHT22;32500;50.620;3.400;2022-08-30T00:49:54;24.30;57.50
46754;DHT22;32500;50.620;3.400;2022-08-30T00:52:21;24.30;57.50
46754;DHT22;32500;50.620;3.400;2022-08-30T00:54:50;24.20;57.50
46754;DHT22;32500;50.620;3.400;2022-08-30T00:57:16;24.20;57.60
46754;DHT22;32500;50.620;3.400;2022-08-30T00:59:43;24.20;57.60
46754;DHT22;32500;50.620;3.400;2022-08-30T01:02:11;24.20;57.60
46754;DHT22;32500;50.620;3.400;2022-08-30T01:04:39;24.20;57.60
46754;DHT22;32500;50.620;3.400;2022-08-30T01:07:07;24.20;57.80
46754;DHT22;32500;50.620;3.400;2022-08-30T01:09:34;24.20;57.70
46754;DHT22;32500;50.620;3.400;2022-08-30T01:12:00;24.20;57.60
46754;DHT22;32500;50.620;3.400;2022-08-30T01:14:26;24.20;57.70
46754;DHT22;32500;50.620;3.400;2022-08-30T01:16:54;24.20;57.80
46754;DHT22;32500;50.620;3.400;2022-08-30T01:22:10;24.20;57.70
46754;DHT22;32500;50.620;3.400;2022-08-30T01:24:42;24.20;57.70
46754;DHT22;32500;50.620;3.400;2022-08-30T01:27:10;24.20;57.70
46754;DHT22;32500;50.620;3.400;2022-08-30T01:29:36;24.20;57.60
46754;DHT22;32500;50.620;3.400;2022-08-30T01:32:04;24.20;57.70
46754;DHT22;32500;50.620;3.400;2022-08-30T01:34:30;24.20;57.70
46754;DHT22;32500;50.620;3.400;2022-08-30T01:36:55;24.20;57.60
46754;DHT22;32500;50.620;3.400;2022-08-30T01:39:21;24.20;57.70
46754;DHT22;32500;50.620;3.400;2022-08-30T01:41:47;24.20;57.70
46754;DHT22;32500;50.620;3.400;2022-08-30T01:44:14;24.20;57.60
46754;DHT22;32500;50.620;3.400;2022-08-30T01:46:44;24.20;57.60
46754;DHT22;32500;50.620;3.400;2022-08-30T01:49:14;24.20;57.60
46754;DHT22;32500;50.620;3.400;2022-08-30T01:51:40;24.10;57.60
46754;DHT22;32500;50.620;3.400;2022-08-30T01:54:06;24.10;57.50
46754;DHT22;32500;50.620;3.400;2022-08-30T01:56:31;24.10;57.50
46754;DHT22;32500;50.620;3.400;2022-08-30T01:58:57;24.20;57.60
46754;DHT22;32500;50.620;3.400;2022-08-30T02:01:24;24.10;57.50
46754;DHT22;32500;50.620;3.400;2022-08-30T02:03:52;24.10;57.70
46754;DHT22;32500;50.620;3.400;2022-08-30T02:06:19;24.10;57.70
46754;DHT22;32500;50.620;3.400;2022-08-30T02:08:45;24.10;57.60
46754;DHT22;32500;50.620;3.400;2022-08-30T02:11:12;24.10;57.60
46754;DHT22;32500;50.620;3.400;2022-08-30T02:13:39;24.10;57.70
46754;DHT22;32500;50.620;3.400;2022-08-30T02:16:08;24.10;57.60
46754;DHT22;32500;50.620;3.400;2022-08-30T02:18:35;24.10;57.60
46754;DHT22;32500;50.620;3.400;2022-08-30T02:21:01;24.10;57.60
46754;DHT22;32500;50.620;3.400;2022-08-30T02:23:27;24.10;57.60
46754;DHT22;32500;50.620;3.400;2022-08-30T02:25:53;24.10;57.60
46754;DHT22;32500;50.620;3.400;2022-08-30T02:28:19;24.10;57.50
46754;DHT22;32500;50.620;3.400;2022-08-30T02:30:46;24.10;57.50
46754;DHT22;32500;50.620;3.400;2022-08-30T02:33:12;24.10;57.40
46754;DHT22;32500;50.620;3.400;2022-08-30T02:35:37;24.10;57.40
46754;DHT22;32500;50.620;3.400;2022-08-30T02:38:06;24.10;57.40
46754;DHT22;32500;50.620;3.400;2022-08-30T02:40:32;24.10;57.40
46754;DHT22;32500;50.620;3.400;2022-08-30T02:42:58;24.10;57.40
46754;DHT22;32500;50.620;3.400;2022-08-30T02:45:24;24.10;57.30
46754;DHT22;32500;50.620;3.400;2022-08-30T02:47:50;24.10;57.40
46754;DHT22;32500;50.620;3.400;2022-08-30T02:50:16;24.10;57.40
46754;DHT22;32500;50.620;3.400;2022-08-30T02:52:42;24.00;57.30
46754;DHT22;32500;50.620;3.400;2022-08-30T02:55:08;24.00;57.40
46754;DHT22;32500;50.620;3.400;2022-08-30T02:57:34;24.00;57.40
46754;DHT22;32500;50.620;3.400;2022-08-30T03:00:01;24.00;57.40
46754;DHT22;32500;50.620;3.400;2022-08-30T03:02:27;24.10;57.40
46754;DHT22;32500;50.620;3.400;2022-08-30T03:04:54;24.10;57.40
46754;DHT22;32500;50.620;3.400;2022-08-30T03:07:21;24.10;57.40
46754;DHT22;32500;50.620;3.400;2022-08-30T03:09:47;24.00;57.30
46754;DHT22;32500;50.620;3.400;2022-08-30T03:12:13;24.00;57.40
46754;DHT22;32500;50.620;3.400;2022-08-30T03:14:38;24.00;57.30
46754;DHT22;32500;50.620;3.400;2022-08-30T03:17:06;24.00;57.20
46754;DHT22;32500;50.620;3.400;2022-08-30T03:19:33;24.00;57.20
46754;DHT22;32500;50.620;3.400;2022-08-30T03:22:01;24.00;57.20
46754;DHT22;32500;50.620;3.400;2022-08-30T03:24:27;24.00;57.10
46754;DHT22;32500;50.620;3.400;2022-08-30T03:26:52;24.00;57.20
46754;DHT22;32500;50.620;3.400;2022-08-30T03:29:18;24.00;57.30
46754;DHT22;32500;50.620;3.400;2022-08-30T03:31:44;24.00;57.30
46754;DHT22;32500;50.620;3.400;2022-08-30T03:34:10;24.00;57.30
46754;DHT22;32500;50.620;3.400;2022-08-30T03:36:38;23.90;57.30
46754;DHT22;32500;50.620;3.400;2022-08-30T03:39:05;24.00;57.30
46754;DHT22;32500;50.620;3.400;2022-08-30T03:41:31;24.00;57.40
46754;DHT22;32500;50.620;3.400;2022-08-30T03:43:58;24.00;57.40
46754;DHT22;32500;50.620;3.400;2022-08-30T03:46:24;23.90;57.30
46754;DHT22;32500;50.620;3.400;2022-08-30T03:48:49;23.90;57.20
46754;DHT22;32500;50.620;3.400;2022-08-30T03:51:17;24.00;57.40
46754;DHT22;32500;50.620;3.400;2022-08-30T03:53:43;24.00;57.30
46754;DHT22;32500;50.620;3.400;2022-08-30T03:56:09;23.90;57.80
46754;DHT22;32500;50.620;3.400;2022-08-30T03:58:35;23.90;57.20
46754;DHT22;32500;50.620;3.400;2022-08-30T04:01:00;23.90;57.30
46754;DHT22;32500;50.620;3.400;2022-08-30T04:03:26;23.90;57.30
46754;DHT22;32500;50.620;3.400;2022-08-30T04:05:53;23.90;57.00
46754;DHT22;32500;50.620;3.400;2022-08-30T04:08:20;23.90;57.20
46754;DHT22;32500;50.620;3.400;2022-08-30T04:10:46;23.90;57.20
46754;DHT22;32500;50.620;3.400;2022-08-30T04:13:13;24.00;57.20
46754;DHT22;32500;50.620;3.400;2022-08-30T04:15:39;23.90;57.20
46754;DHT22;32500;50.620;3.400;2022-08-30T04:18:05;24.00;57.20
46754;DHT22;32500;50.620;3.400;2022-08-30T04:20:30;23.90;57.20
46754;DHT22;32500;50.620;3.400;2022-08-30T04:22:56;23.90;57.40
46754;DHT22;32500;50.620;3.400;2022-08-30T04:25:22;23.90;57.20
46754;DHT22;32500;50.620;3.400;2022-08-30T04:27:48;23.90;57.20
46754;DHT22;32500;50.620;3.400;2022-08-30T04:30:17;23.90;57.30
46754;DHT22;32500;50.620;3.400;2022-08-30T04:32:43;23.90;57.40
46754;DHT22;32500;50.620;3.400;2022-08-30T04:35:10;23.90;57.40
46754;DHT22;32500;50.620;3.400;2022-08-30T04:37:37;23.90;57.40
46754;DHT22;32500;50.620;3.400;2022-08-30T04:40:04;23.80;57.10
46754;DHT22;32500;50.620;3.400;2022-08-30T04:42:32;23.80;57.30
46754;DHT22;32500;50.620;3.400;2022-08-30T04:45:00;23.80;57.20
46754;DHT22;32500;50.620;3.400;2022-08-30T04:47:26;23.90;57.20
46754;DHT22;32500;50.620;3.400;2022-08-30T04:49:52;23.90;57.20
46754;DHT22;32500;50.620;3.400;2022-08-30T04:52:18;23.90;57.20
46754;DHT22;32500;50.620;3.400;2022-08-30T04:54:43;23.90;57.60
46754;DHT22;32500;50.620;3.400;2022-08-30T04:57:09;23.90;57.40
46754;DHT22;32500;50.620;3.400;2022-08-30T04:59:36;23.90;57.90
46754;DHT22;32500;50.620;3.400;2022-08-30T05:02:02;23.90;58.80
46754;DHT22;32500;50.620;3.400;2022-08-30T05:04:28;23.90;58.30
46754;DHT22;32500;50.620;3.400;2022-08-30T05:06:53;23.90;58.20
46754;DHT22;32500;50.620;3.400;2022-08-30T05:09:19;23.90;58.30
46754;DHT22;32500;50.620;3.400;2022-08-30T05:11:46;23.90;58.20
46754;DHT22;32500;50.620;3.400;2022-08-30T05:14:12;23.90;58.10
46754;DHT22;32500;50.620;3.400;2022-08-30T05:16:38;23.90;58.00
46754;DHT22;32500;50.620;3.400;2022-08-30T05:19:06;24.00;57.90
46754;DHT22;32500;50.620;3.400;2022-08-30T05:21:32;24.00;57.80
46754;DHT22;32500;50.620;3.400;2022-08-30T05:23:59;24.00;57.80
46754;DHT22;32500;50.620;3.400;2022-08-30T05:26:31;24.00;57.90
46754;DHT22;32500;50.620;3.400;2022-08-30T05:28:57;24.00;57.70
46754;DHT22;32500;50.620;3.400;2022-08-30T05:31:34;24.00;57.60
46754;DHT22;32500;50.620;3.400;2022-08-30T05:34:00;24.00;57.60
46754;DHT22;32500;50.620;3.400;2022-08-30T05:36:28;24.00;57.50
46754;DHT22;32500;50.620;3.400;2022-08-30T05:38:55;24.00;57.50
46754;DHT22;32500;50.620;3.400;2022-08-30T05:41:22;24.00;57.50
46754;DHT22;32500;50.620;3.400;2022-08-30T05:43:52;24.00;57.50
46754;DHT22;32500;50.620;3.400;2022-08-30T05:46:18;24.00;57.50
46754;DHT22;32500;50.620;3.400;2022-08-30T05:48:44;24.00;57.50
46754;DHT22;32500;50.620;3.400;2022-08-30T05:51:14;24.00;57.30
46754;DHT22;32500;50.620;3.400;2022-08-30T05:53:42;24.00;57.30
46754;DHT22;32500;50.620;3.400;2022-08-30T05:56:10;24.00;57.20
46754;DHT22;32500;50.620;3.400;2022-08-30T05:58:36;24.00;57.30
46754;DHT22;32500;50.620;3.400;2022-08-30T06:01:03;24.00;57.30
46754;DHT22;32500;50.620;3.400;2022-08-30T06:03:29;24.00;57.40
46754;DHT22;32500;50.620;3.400;2022-08-30T06:05:57;24.00;57.30
46754;DHT22;32500;50.620;3.400;2022-08-30T06:08:23;24.00;57.30
46754;DHT22;32500;50.620;3.400;2022-08-30T06:10:49;24.00;57.20
46754;DHT22;32500;50.620;3.400;2022-08-30T06:13:15;24.00;57.20
46754;DHT22;32500;50.620;3.400;2022-08-30T06:15:41;24.00;57.30
46754;DHT22;32500;50.620;3.400;2022-08-30T06:18:11;24.00;57.20
46754;DHT22;32500;50.620;3.400;2022-08-30T06:20:41;24.00;57.10
46754;DHT22;32500;50.620;3.400;2022-08-30T06:23:08;24.00;57.20
46754;DHT22;32500;50.620;3.400;2022-08-30T06:25:35;24.00;57.10
46754;DHT22;32500;50.620;3.400;2022-08-30T06:28:03;24.00;57.20
46754;DHT22;32500;50.620;3.400;2022-08-30T06:30:29;24.00;57.20
46754;DHT22;32500;50.620;3.400;2022-08-30T06:32:55;24.00;57.20
46754;DHT22;32500;50.620;3.400;2022-08-30T06:35:21;24.00;57.20
46754;DHT22;32500;50.620;3.400;2022-08-30T06:37:46;24.00;57.10
46754;DHT22;32500;50.620;3.400;2022-08-30T06:40:12;24.00;57.10
46754;DHT22;32500;50.620;3.400;2022-08-30T06:42:38;24.00;57.10
46754;DHT22;32500;50.620;3.400;2022-08-30T06:45:04;24.00;57.00
46754;DHT22;32500;50.620;3.400;2022-08-30T06:47:30;24.10;57.10
46754;DHT22;32500;50.620;3.400;2022-08-30T06:49:57;24.10;57.10
46754;DHT22;32500;50.620;3.400;2022-08-30T06:52:23;24.00;57.00
46754;DHT22;32500;50.620;3.400;2022-08-30T06:54:49;24.00;57.00
46754;DHT22;32500;50.620;3.400;2022-08-30T06:57:15;24.10;57.00
46754;DHT22;32500;50.620;3.400;2022-08-30T06:59:41;24.10;56.90
46754;DHT22;32500;50.620;3.400;2022-08-30T07:02:07;24.10;56.80
46754;DHT22;32500;50.620;3.400;2022-08-30T07:04:33;24.10;56.90
46754;DHT22;32500;50.620;3.400;2022-08-30T07:06:59;24.10;56.80
46754;DHT22;32500;50.620;3.400;2022-08-30T07:09:25;24.10;56.90
46754;DHT22;32500;50.620;3.400;2022-08-30T07:11:51;24.10;56.80
46754;DHT22;32500;50.620;3.400;2022-08-30T07:14:17;24.20;56.80
46754;DHT22;32500;50.620;3.400;2022-08-30T07:16:44;24.10;56.70
46754;DHT22;32500;50.620;3.400;2022-08-30T07:19:10;24.20;56.60
46754;DHT22;32500;50.620;3.400;2022-08-30T07:21:41;24.20;56.50
46754;DHT22;32500;50.620;3.400;2022-08-30T07:24:10;24.30;56.30
46754;DHT22;32500;50.620;3.400;2022-08-30T07:26:39;24.30;56.10
46754;DHT22;32500;50.620;3.400;2022-08-30T07:29:06;24.30;55.90
46754;DHT22;32500;50.620;3.400;2022-08-30T07:31:32;24.40;55.80
46754;DHT22;32500;50.620;3.400;2022-08-30T07:34:04;24.50;55.60
46754;DHT22;32500;50.620;3.400;2022-08-30T07:36:30;24.50;55.40
46754;DHT22;32500;50.620;3.400;2022-08-30T07:38:56;24.50;55.90
46754;DHT22;32500;50.620;3.400;2022-08-30T07:41:30;24.50;55.10
46754;DHT22;32500;50.620;3.400;2022-08-30T07:43:56;24.60;55.10
46754;DHT22;32500;50.620;3.400;2022-08-30T07:46:23;24.60;55.00
46754;DHT22;32500;50.620;3.400;2022-08-30T07:48:49;24.70;54.90
46754;DHT22;32500;50.620;3.400;2022-08-30T07:51:18;24.70;54.80
46754;DHT22;32500;50.620;3.400;2022-08-30T07:53:44;24.70;54.70
46754;DHT22;32500;50.620;3.400;2022-08-30T07:56:11;24.80;54.60
46754;DHT22;32500;50.620;3.400;2022-08-30T07:58:36;24.80;54.60
46754;DHT22;32500;50.620;3.400;2022-08-30T08:01:06;24.80;54.50
46754;DHT22;32500;50.620;3.400;2022-08-30T08:03:33;24.80;54.50
46754;DHT22;32500;50.620;3.400;2022-08-30T08:06:01;24.80;54.50
46754;DHT22;32500;50.620;3.400;2022-08-30T08:08:27;24.80;54.60
46754;DHT22;32500;50.620;3.400;2022-08-30T08:10:53;24.80;54.50
46754;DHT22;32500;50.620;3.400;2022-08-30T08:13:19;24.80;54.50
46754;DHT22;32500;50.620;3.400;2022-08-30T08:15:45;24.90;54.60
46754;DHT22;32500;50.620;3.400;2022-08-30T08:18:10;24.90;54.50
46754;DHT22;32500;50.620;3.400;2022-08-30T08:20:36;24.90;54.40
46754;DHT22;32500;50.620;3.400;2022-08-30T08:23:02;25.00;54.50
46754;DHT22;32500;50.620;3.400;2022-08-30T08:25:29;25.00;54.50
46754;DHT22;32500;50.620;3.400;2022-08-30T08:27:55;25.00;54.60
46754;DHT22;32500;50.620;3.400;2022-08-30T08:30:22;24.90;54.40
46754;DHT22;32500;50.620;3.400;2022-08-30T08:32:49;25.00;54.50
46754;DHT22;32500;50.620;3.400;2022-08-30T08:35:16;25.00;54.50
46754;DHT22;32500;50.620;3.400;2022-08-30T08:37:42;25.00;54.50
46754;DHT22;32500;50.620;3.400;2022-08-30T08:40:13;25.10;54.40
46754;DHT22;32500;50.620;3.400;2022-08-30T08:43:14;25.10;54.50
46754;DHT22;32500;50.620;3.400;2022-08-30T08:50:49;25.10;54.40
46754;DHT22;32500;50.620;3.400;2022-08-30T08:53:35;25.20;54.50
46754;DHT22;32500;50.620;3.400;2022-08-30T08:56:06;25.20;54.40
46754;DHT22;32500;50.620;3.400;2022-08-30T08:58:45;25.20;54.30
46754;DHT22;32500;50.620;3.400;2022-08-30T09:01:15;25.20;54.30
46754;DHT22;32500;50.620;3.400;2022-08-30T09:03:41;25.30;54.30
46754;DHT22;32500;50.620;3.400;2022-08-30T09:09:02;25.30;54.30
46754;DHT22;32500;50.620;3.400;2022-08-30T09:11:30;25.30;54.20
46754;DHT22;32500;50.620;3.400;2022-08-30T09:13:57;25.40;54.30
46754;DHT22;32500;50.620;3.400;2022-08-30T09:19:20;25.40;54.20
46754;DHT22;32500;50.620;3.400;2022-08-30T09:21:59;25.40;54.10
46754;DHT22;32500;50.620;3.400;2022-08-30T09:24:25;25.40;54.10
46754;DHT22;32500;50.620;3.400;2022-08-30T09:26:51;25.40;54.10
46754;DHT22;32500;50.620;3.400;2022-08-30T09:29:18;25.40;54.10
46754;DHT22;32500;50.620;3.400;2022-08-30T09:31:49;25.50;54.10
46754;DHT22;32500;50.620;3.400;2022-08-30T09:34:20;25.50;54.10
46754;DHT22;32500;50.620;3.400;2022-08-30T09:36:51;25.50;54.00
46754;DHT22;32500;50.620;3.400;2022-08-30T09:39:18;25.50;54.00
46754;DHT22;32500;50.620;3.400;2022-08-30T09:41:47;25.60;53.90
46754;DHT22;32500;50.620;3.400;2022-08-30T09:44:21;25.50;53.80
46754;DHT22;32500;50.620;3.400;2022-08-30T09:49:40;25.60;53.70
46754;DHT22;32500;50.620;3.400;2022-08-30T10:00:23;25.70;53.60
46754;DHT22;32500;50.620;3.400;2022-08-30T10:05:36;25.70;53.50
46754;DHT22;32500;50.620;3.400;2022-08-30T10:25:06;25.80;53.30
46754;DHT22;32500;50.620;3.400;2022-08-30T10:28:02;25.80;53.30
46754;DHT22;32500;50.620;3.400;2022-08-30T10:30:27;25.80;53.20
46754;DHT22;32500;50.620;3.400;2022-08-30T10:33:13;25.80;53.20
46754;DHT22;32500;50.620;3.400;2022-08-30T10:35:57;25.80;53.00
46754;DHT22;32500;50.620;3.400;2022-08-30T10:38:31;25.90;53.00
46754;DHT22;32500;50.620;3.400;2022-08-30T10:41:12;25.90;53.00
46754;DHT22;32500;50.620;3.400;2022-08-30T10:44:02;25.90;52.90
46754;DHT22;32500;50.620;3.400;2022-08-30T10:49:30;25.90;52.90
46754;DHT22;32500;50.620;3.400;2022-08-30T10:57:09;26.00;52.70
46754;DHT22;32500;50.620;3.400;2022-08-30T10:59:38;26.00;52.70
46754;DHT22;32500;50.620;3.400;2022-08-30T11:03:10;26.00;52.60
46754;DHT22;32500;50.620;3.400;2022-08-30T11:13:49;26.00;52.40
46754;DHT22;32500;50.620;3.400;2022-08-30T11:16:17;26.00;52.30
46754;DHT22;32500;50.620;3.400;2022-08-30T11:18:52;26.00;52.30
46754;DHT22;32500;50.620;3.400;2022-08-30T11:21:30;26.10;52.30
46754;DHT22;32500;50.620;3.400;2022-08-30T11:24:21;26.00;52.20
46754;DHT22;32500;50.620;3.400;2022-08-30T11:29:32;26.10;52.20
46754;DHT22;32500;50.620;3.400;2022-08-30T11:37:38;26.10;52.10
46754;DHT22;32500;50.620;3.400;2022-08-30T11:40:09;26.20;52.20
46754;DHT22;32500;50.620;3.400;2022-08-30T11:47:55;26.20;52.00
46754;DHT22;32500;50.620;3.400;2022-08-30T11:53:15;26.20;52.30
46754;DHT22;32500;50.620;3.400;2022-08-30T11:58:31;26.30;52.20
46754;DHT22;32500;50.620;3.400;2022-08-30T12:12:06;26.30;59.00
46754;DHT22;32500;50.620;3.400;2022-08-30T12:17:55;26.40;57.80
46754;DHT22;32500;50.620;3.400;2022-08-30T12:20:45;26.40;56.90
46754;DHT22;32500;50.620;3.400;2022-08-30T12:23:37;26.40;56.10
46754;DHT22;32500;50.620;3.400;2022-08-30T12:28:46;26.50;56.30
46754;DHT22;32500;50.620;3.400;2022-08-30T12:31:24;26.50;55.70
46754;DHT22;32500;50.620;3.400;2022-08-30T12:33:57;26.50;55.00
46754;DHT22;32500;50.620;3.400;2022-08-30T12:39:09;26.50;54.70
46754;DHT22;32500;50.620;3.400;2022-08-30T12:41:35;26.50;54.40
46754;DHT22;32500;50.620;3.400;2022-08-30T12:44:02;26.50;54.20
46754;DHT22;32500;50.620;3.400;2022-08-30T12:46:28;26.50;54.10
46754;DHT22;32500;50.620;3.400;2022-08-30T12:48:55;26.50;53.70
46754;DHT22;32500;50.620;3.400;2022-08-30T12:54:04;26.50;53.40
46754;DHT22;32500;50.620;3.400;2022-08-30T12:57:06;26.50;53.00
46754;DHT22;32500;50.620;3.400;2022-08-30T12:59:53;26.60;52.70
46754;DHT22;32500;50.620;3.400;2022-08-30T13:02:27;26.60;52.60
46754;DHT22;32500;50.620;3.400;2022-08-30T13:05:28;26.60;52.40
46754;DHT22;32500;50.620;3.400;2022-08-30T13:10:58;26.60;52.10
46754;DHT22;32500;50.620;3.400;2022-08-30T13:13:29;26.60;52.00
46754;DHT22;32500;50.620;3.400;2022-08-30T13:15:56;26.60;51.80
46754;DHT22;32500;50.620;3.400;2022-08-30T13:18:30;26.60;51.80
46754;DHT22;32500;50.620;3.400;2022-08-30T13:21:31;26.60;51.60
46754;DHT22;32500;50.620;3.400;2022-08-30T13:24:05;26.60;51.80
46754;DHT22;32500;50.620;3.400;2022-08-30T13:26:34;26.60;51.50
46754;DHT22;32500;50.620;3.400;2022-08-30T13:29:04;26.60;51.30
46754;DHT22;32500;50.620;3.400;2022-08-30T13:31:31;26.60;51.30
46754;DHT22;32500;50.620;3.400;2022-08-30T13:33:58;26.70;51.20
46754;DHT22;32500;50.620;3.400;2022-08-30T13:36:28;26.70;51.10
46754;DHT22;32500;50.620;3.400;2022-08-30T13:38:56;26.70;51.00
46754;DHT22;32500;50.620;3.400;2022-08-30T13:41:22;26.70;51.00
46754;DHT22;32500;50.620;3.400;2022-08-30T13:43:48;26.70;50.90
46754;DHT22;32500;50.620;3.400;2022-08-30T13:46:15;26.70;51.00
46754;DHT22;32500;50.620;3.400;2022-08-30T13:48:41;26.70;50.80
46754;DHT22;32500;50.620;3.400;2022-08-30T13:51:07;26.80;50.80
46754;DHT22;32500;50.620;3.400;2022-08-30T13:53:34;26.80;50.80
46754;DHT22;32500;50.620;3.400;2022-08-30T13:56:03;26.80;50.70
46754;DHT22;32500;50.620;3.400;2022-08-30T13:58:29;26.80;50.70
46754;DHT22;32500;50.620;3.400;2022-08-30T14:00:56;26.80;50.60
46754;DHT22;32500;50.620;3.400;2022-08-30T14:03:22;26.80;50.70
46754;DHT22;32500;50.620;3.400;2022-08-30T14:05:48;26.80;50.60
46754;DHT22;32500;50.620;3.400;2022-08-30T14:08:16;26.80;50.60
46754;DHT22;32500;50.620;3.400;2022-08-30T14:10:42;26.90;50.60
46754;DHT22;32500;50.620;3.400;2022-08-30T14:13:08;26.90;50.60
46754;DHT22;32500;50.620;3.400;2022-08-30T14:15:35;26.90;50.60
46754;DHT22;32500;50.620;3.400;2022-08-30T14:18:03;26.90;50.60
46754;DHT22;32500;50.620;3.400;2022-08-30T14:20:29;26.90;50.60
46754;DHT22;32500;50.620;3.400;2022-08-30T14:22:55;26.90;50.50
46754;DHT22;32500;50.620;3.400;2022-08-30T14:25:20;26.90;50.50
46754;DHT22;32500;50.620;3.400;2022-08-30T14:27:46;27.00;50.60
46754;DHT22;32500;50.620;3.400;2022-08-30T14:30:12;27.00;50.60
46754;DHT22;32500;50.620;3.400;2022-08-30T14:32:38;27.00;50.60
46754;DHT22;32500;50.620;3.400;2022-08-30T14:35:04;27.00;50.60
46754;DHT22;32500;50.620;3.400;2022-08-30T14:37:29;27.00;50.50
46754;DHT22;32500;50.620;3.400;2022-08-30T14:39:55;27.00;50.50
46754;DHT22;32500;50.620;3.400;2022-08-30T14:42:21;27.10;50.50
46754;DHT22;32500;50.620;3.400;2022-08-30T14:44:46;27.10;50.50
46754;DHT22;32500;50.620;3.400;2022-08-30T14:47:12;27.10;49.90
46754;DHT22;32500;50.620;3.400;2022-08-30T14:49:37;27.10;50.50
46754;DHT22;32500;50.620;3.400;2022-08-30T14:52:03;27.10;50.40
46754;DHT22;32500;50.620;3.400;2022-08-30T14:54:29;27.10;50.40
46754;DHT22;32500;50.620;3.400;2022-08-30T14:56:56;27.10;50.40
46754;DHT22;32500;50.620;3.400;2022-08-30T14:59:23;27.10;50.50
46754;DHT22;32500;50.620;3.400;2022-08-30T15:01:49;27.10;50.40
46754;DHT22;32500;50.620;3.400;2022-08-30T15:04:15;27.10;50.10
46754;DHT22;32500;50.620;3.400;2022-08-30T15:06:44;27.10;49.50
46754;DHT22;32500;50.620;3.400;2022-08-30T15:09:11;27.10;48.70
46754;DHT22;32500;50.620;3.400;2022-08-30T15:11:39;27.10;49.30
46754;DHT22;32500;50.620;3.400;2022-08-30T15:14:05;27.00;49.10
46754;DHT22;32500;50.620;3.400;2022-08-30T15:16:33;27.00;49.00
46754;DHT22;32500;50.620;3.400;2022-08-30T15:19:00;27.00;48.00
46754;DHT22;32500;50.620;3.400;2022-08-30T15:21:39;27.00;47.20
46754;DHT22;32500;50.620;3.400;2022-08-30T15:24:07;27.00;48.30
46754;DHT22;32500;50.620;3.400;2022-08-30T15:26:34;27.00;48.00
46754;DHT22;32500;50.620;3.400;2022-08-30T15:29:01;27.00;47.70
46754;DHT22;32500;50.620;3.400;2022-08-30T15:31:28;27.00;48.20
46754;DHT22;32500;50.620;3.400;2022-08-30T15:33:56;26.90;48.50
46754;DHT22;32500;50.620;3.400;2022-08-30T15:36:23;26.90;48.50
46754;DHT22;32500;50.620;3.400;2022-08-30T15:38:51;26.90;48.70
46754;DHT22;32500;50.620;3.400;2022-08-30T15:41:20;26.80;47.60
46754;DHT22;32500;50.620;3.400;2022-08-30T15:43:46;26.90;47.60
46754;DHT22;32500;50.620;3.400;2022-08-30T15:46:32;26.90;48.10
46754;DHT22;32500;50.620;3.400;2022-08-30T15:49:15;26.80;48.40
46754;DHT22;32500;50.620;3.400;2022-08-30T15:51:43;26.80;48.50
46754;DHT22;32500;50.620;3.400;2022-08-30T15:54:11;26.90;47.80
46754;DHT22;32500;50.620;3.400;2022-08-30T15:56:38;26.80;47.40
46754;DHT22;32500;50.620;3.400;2022-08-30T15:59:04;26.90;46.60
46754;DHT22;32500;50.620;3.400;2022-08-30T16:01:29;26.80;47.00
46754;DHT22;32500;50.620;3.400;2022-08-30T16:03:55;26.80;48.00
46754;DHT22;32500;50.620;3.400;2022-08-30T16:06:24;26.80;47.60
46754;DHT22;32500;50.620;3.400;2022-08-30T16:08:51;26.80;47.80
46754;DHT22;32500;50.620;3.400;2022-08-30T16:11:18;26.80;48.10
46754;DHT22;32500;50.620;3.400;2022-08-30T16:13:47;26.80;48.70
46754;DHT22;32500;50.620;3.400;2022-08-30T16:16:13;26.80;47.60
46754;DHT22;32500;50.620;3.400;2022-08-30T16:18:38;26.80;48.10
46754;DHT22;32500;50.620;3.400;2022-08-30T16:21:07;26.80;48.00
46754;DHT22;32500;50.620;3.400;2022-08-30T16:23:34;26.80;47.00
46754;DHT22;32500;50.620;3.400;2022-08-30T16:26:00;26.70;47.60
46754;DHT22;32500;50.620;3.400;2022-08-30T16:28:25;26.60;48.50
46754;DHT22;32500;50.620;3.400;2022-08-30T16:30:51;26.60;48.20
46754;DHT22;32500;50.620;3.400;2022-08-30T16:33:17;26.60;48.90
46754;DHT22;32500;50.620;3.400;2022-08-30T16:35:43;26.60;48.80
46754;DHT22;32500;50.620;3.400;2022-08-30T16:38:09;26.70;47.90
46754;DHT22;32500;50.620;3.400;2022-08-30T16:40:34;26.80;47.60
46754;DHT22;32500;50.620;3.400;2022-08-30T16:43:02;26.80;46.50
46754;DHT22;32500;50.620;3.400;2022-08-30T16:45:27;26.80;47.20
46754;DHT22;32500;50.620;3.400;2022-08-30T16:47:53;26.70;46.80
46754;DHT22;32500;50.620;3.400;2022-08-30T16:50:19;26.70;47.30
46754;DHT22;32500;50.620;3.400;2022-08-30T16:52:48;26.80;47.40
46754;DHT22;32500;50.620;3.400;2022-08-30T16:55:14;26.80;46.90
46754;DHT22;32500;50.620;3.400;2022-08-30T16:57:40;26.80;47.10
46754;DHT22;32500;50.620;3.400;2022-08-30T17:00:06;26.80;47.40
46754;DHT22;32500;50.620;3.400;2022-08-30T17:02:33;26.80;46.50
46754;DHT22;32500;50.620;3.400;2022-08-30T17:04:59;26.80;46.20
46754;DHT22;32500;50.620;3.400;2022-08-30T17:07:25;26.70;45.90
46754;DHT22;32500;50.620;3.400;2022-08-30T17:09:50;26.80;46.50
46754;DHT22;32500;50.620;3.400;2022-08-30T17:12:16;26.70;46.90
46754;DHT22;32500;50.620;3.400;2022-08-30T17:14:42;26.80;46.70
46754;DHT22;32500;50.620;3.400;2022-08-30T17:17:08;26.80;46.60
46754;DHT22;32500;50.620;3.400;2022-08-30T17:19:34;26.70;46.90
46754;DHT22;32500;50.620;3.400;2022-08-30T17:22:02;26.80;46.50